createdAt,value
2017-11-22T00:02:02.917Z,86.76
2017-11-22T00:04:28.704Z,86.90
2017-11-22T00:06:55.500Z,87.11
2017-11-22T00:09:21.288Z,86.83
2017-11-22T00:11:49.779Z,86.41
2017-11-22T00:14:15.549Z,87.28
2017-11-22T00:16:42.023Z,87.42
2017-11-22T00:19:09.405Z,87.78
2017-11-22T00:21:35.192Z,87.93
2017-11-22T00:24:01.848Z,88.10
2017-11-22T00:26:27.623Z,88.41
2017-11-22T00:28:57.063Z,89.08
2017-11-22T00:31:22.823Z,88.57
2017-11-22T00:33:52.600Z,88.07
2017-11-22T00:36:18.411Z,88.44
2017-11-22T00:38:46.015Z,88.27
2017-11-22T00:41:11.780Z,88.10
2017-11-22T00:43:40.388Z,87.87
2017-11-22T00:46:06.176Z,88.36
2017-11-22T00:48:32.651Z,88.13
2017-11-22T00:50:59.993Z,88.60
2017-11-22T00:53:25.847Z,88.07
2017-11-22T00:55:52.945Z,88.22
2017-11-22T00:58:18.736Z,87.78
2017-11-22T01:00:47.770Z,87.46
2017-11-22T01:03:13.544Z,87.61
2017-11-22T01:05:43.278Z,87.36
2017-11-22T01:08:09.100Z,87.43
2017-11-22T01:10:37.908Z,87.78
2017-11-22T01:13:03.700Z,88.40
2017-11-22T01:15:31.053Z,88.04
2017-11-22T01:17:56.827Z,87.43
2017-11-22T01:20:26.102Z,87.46
2017-11-22T01:22:51.872Z,86.64
2017-11-22T01:25:20.387Z,86.29
2017-11-22T01:27:46.172Z,86.35
2017-11-22T01:30:12.644Z,87.54
2017-11-22T01:32:38.444Z,87.03
2017-11-22T01:35:04.237Z,87.69
2017-11-22T01:37:34.118Z,86.94
2017-11-22T01:39:59.891Z,87.76
2017-11-22T01:42:27.213Z,87.18
2017-11-22T01:44:53.019Z,87.44
2017-11-22T01:47:22.480Z,87.40
2017-11-22T01:49:48.280Z,88.22
2017-11-22T01:52:17.875Z,88.25
2017-11-22T01:54:43.668Z,88.35
2017-11-22T01:57:11.080Z,88.32
2017-11-22T01:59:36.865Z,88.15
2017-11-22T02:02:06.214Z,88.34
2017-11-22T02:04:32.028Z,87.72
2017-11-22T02:07:00.884Z,87.90
2017-11-22T02:09:26.693Z,87.16
2017-11-22T02:11:55.991Z,87.29
2017-11-22T02:14:21.764Z,87.33
2017-11-22T02:16:51.311Z,87.41
2017-11-22T02:19:17.107Z,87.78
2017-11-22T02:21:44.826Z,87.95
2017-11-22T02:24:10.606Z,89.00
2017-11-22T02:26:39.988Z,88.57
2017-11-22T02:29:05.783Z,87.53
2017-11-22T02:31:31.587Z,86.81
2017-11-22T02:33:57.372Z,86.69
2017-11-22T02:36:23.155Z,86.17
2017-11-22T02:38:51.983Z,87.10
2017-11-22T02:41:17.781Z,87.58
2017-11-22T02:43:47.253Z,87.71
2017-11-22T02:46:13.028Z,87.73
2017-11-22T02:48:42.192Z,87.83
2017-11-22T02:51:08.005Z,88.59
2017-11-22T02:53:35.253Z,88.29
2017-11-22T02:56:01.065Z,88.42
2017-11-22T02:58:29.995Z,88.21
2017-11-22T03:00:55.802Z,87.86
2017-11-22T03:03:26.030Z,87.69
2017-11-22T03:05:51.847Z,86.87
2017-11-22T03:08:17.605Z,85.67
2017-11-22T03:10:43.384Z,86.65
2017-11-22T03:13:09.180Z,87.04
2017-11-22T03:15:36.571Z,86.95
2017-11-22T03:18:02.373Z,87.11
2017-11-22T03:20:31.726Z,87.20
2017-11-22T03:22:57.537Z,86.85
2017-11-22T03:25:25.764Z,87.60
2017-11-22T03:27:51.580Z,86.98
2017-11-22T03:30:22.468Z,86.99
2017-11-22T03:32:48.292Z,86.83
2017-11-22T03:35:15.240Z,87.11
2017-11-22T03:37:42.751Z,86.78
2017-11-22T03:40:11.741Z,86.74
2017-11-22T03:42:37.592Z,86.90
2017-11-22T03:45:03.420Z,88.52
2017-11-22T03:47:29.237Z,87.53
2017-11-22T03:50:01.175Z,87.63
2017-11-22T03:52:33.001Z,87.63
2017-11-22T03:54:58.812Z,87.75
2017-11-22T03:57:24.655Z,87.85
2017-11-22T04:02:46.878Z,88.17
2017-11-22T04:05:12.772Z,88.17
2017-11-22T04:07:38.540Z,87.95
2017-11-22T04:10:04.309Z,88.19
2017-11-22T04:12:30.056Z,88.68
2017-11-22T04:14:55.828Z,89.11
2017-11-22T04:17:21.604Z,88.68
2017-11-22T04:19:50.284Z,88.08
2017-11-22T04:22:16.036Z,87.58
2017-11-22T04:24:41.820Z,87.65
2017-11-22T04:27:07.587Z,88.27
2017-11-22T04:29:33.359Z,88.39
2017-11-22T04:31:59.100Z,88.58
2017-11-22T04:34:24.845Z,88.44
2017-11-22T04:36:50.621Z,88.60
2017-11-22T04:39:16.384Z,88.35
2017-11-22T04:41:42.192Z,88.14
2017-11-22T04:44:07.988Z,87.88
2017-11-22T04:46:33.775Z,87.54
2017-11-22T04:48:59.548Z,87.30
2017-11-22T04:51:25.324Z,87.75
2017-11-22T04:53:51.100Z,87.98
2017-11-22T04:56:16.850Z,88.25
2017-11-22T04:58:42.614Z,88.02
2017-11-22T05:01:08.404Z,87.75
2017-11-22T05:03:34.160Z,87.62
2017-11-22T05:05:59.944Z,88.00
2017-11-22T05:08:25.713Z,87.96
2017-11-22T05:10:51.475Z,87.99
2017-11-22T05:13:17.296Z,86.31
2017-11-22T05:15:43.109Z,84.32
2017-11-22T05:18:08.890Z,85.06
2017-11-22T05:20:38.328Z,85.38
2017-11-22T05:23:04.366Z,85.87
2017-11-22T05:25:31.780Z,86.20
2017-11-22T05:27:57.540Z,86.54
2017-11-22T05:30:25.796Z,87.25
2017-11-22T05:32:51.548Z,87.74
2017-11-22T05:35:17.300Z,87.89
2017-11-22T05:37:44.321Z,87.17
2017-11-22T05:40:10.092Z,87.18
2017-11-22T05:42:37.597Z,87.05
2017-11-22T05:45:03.397Z,87.00
2017-11-22T05:47:32.689Z,87.23
2017-11-22T05:49:58.481Z,88.25
2017-11-22T05:52:28.284Z,88.46
2017-11-22T05:54:54.065Z,87.69
2017-11-22T05:57:21.664Z,88.93
2017-11-22T05:59:47.448Z,89.03
2017-11-22T06:04:44.115Z,87.24
2017-11-22T06:07:11.576Z,86.82
2017-11-22T06:09:37.392Z,86.63
2017-11-22T06:12:03.148Z,86.88
2017-11-22T06:14:28.900Z,87.06
2017-11-22T06:16:54.687Z,87.11
2017-11-22T06:19:24.369Z,87.10
2017-11-22T06:21:50.182Z,87.72
2017-11-22T06:24:17.792Z,87.24
2017-11-22T06:26:43.544Z,87.45
2017-11-22T06:29:12.855Z,87.45
2017-11-22T06:31:38.633Z,87.22
2017-11-22T06:34:07.638Z,86.77
2017-11-22T06:36:33.414Z,87.35
2017-11-22T06:39:05.637Z,87.45
2017-11-22T06:41:31.388Z,86.96
2017-11-22T06:43:57.161Z,86.62
2017-11-22T06:46:23.085Z,87.10
2017-11-22T06:48:48.839Z,87.32
2017-11-22T06:51:14.626Z,87.55
2017-11-22T06:53:40.394Z,87.06
2017-11-22T06:56:08.132Z,87.55
2017-11-22T06:58:33.945Z,88.01
2017-11-22T07:01:03.699Z,86.76
2017-11-22T07:03:32.464Z,85.99
2017-11-22T07:05:58.232Z,84.88
2017-11-22T07:08:24.000Z,83.78
2017-11-22T07:10:52.813Z,82.81
2017-11-22T07:13:19.315Z,81.85
2017-11-22T07:15:56.327Z,81.03
2017-11-22T07:18:22.099Z,80.58
2017-11-22T07:20:47.860Z,79.17
2017-11-22T07:23:13.639Z,77.00
2017-11-22T07:25:39.403Z,74.92
2017-11-22T07:28:05.140Z,73.33
2017-11-22T07:30:30.888Z,71.76
2017-11-22T07:32:56.640Z,70.96
2017-11-22T07:35:28.549Z,68.98
2017-11-22T07:38:00.390Z,65.66
2017-11-22T07:40:29.075Z,64.50
2017-11-22T07:42:54.856Z,61.58
2017-11-22T07:45:20.613Z,58.41
2017-11-22T07:47:52.482Z,54.76
2017-11-22T07:50:18.307Z,51.06
2017-11-22T07:52:44.068Z,49.73
2017-11-22T07:55:09.844Z,50.07
2017-11-22T07:57:37.576Z,50.19
2017-11-22T08:00:03.390Z,51.64
2017-11-22T08:02:29.220Z,49.85
2017-11-22T08:04:55.004Z,47.35
2017-11-22T08:07:20.744Z,44.38
2017-11-22T08:09:46.484Z,43.71
2017-11-22T08:12:12.244Z,41.25
2017-11-22T08:14:37.996Z,39.17
2017-11-22T08:17:03.756Z,38.33
2017-11-22T08:19:29.533Z,38.68
2017-11-22T08:21:55.289Z,37.43
2017-11-22T08:24:22.800Z,36.68
2017-11-22T08:26:48.547Z,34.85
2017-11-22T08:31:45.260Z,33.29
2017-11-22T08:34:12.808Z,32.57
2017-11-22T08:36:38.571Z,30.72
2017-11-22T08:39:04.320Z,30.33
2017-11-22T08:41:36.145Z,33.45
2017-11-22T08:44:01.990Z,31.01
2017-11-22T08:46:27.752Z,32.00
2017-11-22T08:48:53.528Z,31.27
2017-11-22T08:51:19.292Z,31.54
2017-11-22T08:53:45.059Z,31.48
2017-11-22T08:56:19.663Z,31.65
2017-11-22T08:58:45.423Z,31.12
2017-11-22T09:01:11.176Z,31.68
2017-11-22T09:03:43.084Z,30.76
2017-11-22T09:06:15.072Z,30.93
2017-11-22T09:08:40.818Z,30.58
2017-11-22T09:11:06.609Z,30.02
2017-11-22T09:13:32.388Z,31.93
2017-11-22T09:15:58.163Z,31.62
2017-11-22T09:18:29.880Z,29.17
2017-11-22T09:20:55.658Z,28.68
2017-11-22T09:23:21.420Z,30.36
2017-11-22T09:25:47.181Z,29.64
2017-11-22T09:28:12.948Z,30.48
2017-11-22T09:30:44.968Z,28.09
2017-11-22T09:33:10.752Z,27.47
2017-11-22T09:35:36.503Z,28.68
2017-11-22T09:38:02.244Z,29.16
2017-11-22T09:40:28.049Z,29.61
2017-11-22T09:42:53.801Z,29.62
2017-11-22T09:45:19.566Z,30.68
2017-11-22T09:47:45.344Z,28.97
2017-11-22T09:50:11.085Z,30.71
2017-11-22T09:52:37.271Z,32.56
2017-11-22T09:55:03.060Z,31.83
2017-11-22T09:57:28.839Z,32.44
2017-11-22T09:59:54.588Z,32.20
2017-11-22T10:02:20.393Z,31.54
2017-11-22T10:07:16.976Z,37.23
2017-11-22T10:09:44.259Z,38.72
2017-11-22T10:12:10.023Z,39.17
2017-11-22T10:14:38.792Z,36.81
2017-11-22T10:17:10.671Z,36.72
2017-11-22T10:19:42.664Z,36.21
2017-11-22T10:22:08.472Z,37.31
2017-11-22T10:24:34.378Z,35.48
2017-11-22T10:27:06.275Z,37.52
2017-11-22T10:29:39.058Z,37.85
2017-11-22T10:32:04.871Z,38.74
2017-11-22T10:34:30.644Z,36.11
2017-11-22T10:36:56.416Z,34.97
2017-11-22T10:39:22.224Z,33.92
2017-11-22T10:41:48.000Z,33.78
2017-11-22T10:44:13.772Z,35.00
2017-11-22T10:46:39.552Z,34.41
2017-11-22T10:49:05.321Z,35.16
2017-11-22T10:51:31.103Z,34.84
2017-11-22T10:53:56.876Z,34.29
2017-11-22T10:56:22.635Z,33.39
2017-11-22T10:58:48.419Z,34.45
2017-11-22T11:01:14.184Z,33.79
2017-11-22T11:03:39.963Z,34.86
2017-11-22T11:06:05.736Z,32.27
2017-11-22T11:08:31.525Z,30.87
2017-11-22T11:10:57.292Z,31.15
2017-11-22T11:13:26.753Z,32.23
2017-11-22T11:15:52.531Z,34.41
2017-11-22T11:18:20.112Z,35.52
2017-11-22T11:20:45.884Z,36.27
2017-11-22T11:23:14.229Z,36.49
2017-11-22T11:25:40.048Z,36.36
2017-11-22T11:28:05.784Z,35.14
2017-11-22T11:30:32.185Z,34.57
2017-11-22T11:32:57.998Z,35.77
2017-11-22T11:35:40.021Z,35.50
2017-11-22T11:38:05.812Z,35.47
2017-11-22T11:40:31.597Z,35.10
2017-11-22T11:42:57.363Z,37.87
2017-11-22T11:45:23.148Z,38.72
2017-11-22T11:47:48.948Z,36.14
2017-11-22T11:50:14.701Z,38.86
2017-11-22T11:52:40.504Z,40.45
2017-11-22T11:55:06.265Z,40.80
2017-11-22T11:57:32.319Z,40.39
2017-11-22T12:00:00.021Z,40.41
2017-11-22T12:02:26.721Z,42.05
2017-11-22T12:04:57.226Z,41.01
2017-11-22T12:07:24.307Z,40.11
2017-11-22T12:09:51.177Z,38.70
2017-11-22T12:12:17.689Z,39.04
2017-11-22T12:14:44.883Z,38.32
2017-11-22T12:17:11.265Z,38.74
2017-11-22T12:19:38.049Z,35.96
2017-11-22T12:22:10.622Z,35.29
2017-11-22T12:24:36.465Z,36.46
2017-11-22T12:27:05.277Z,34.75
2017-11-22T12:29:31.043Z,34.75
2017-11-22T12:31:56.794Z,34.89
2017-11-22T12:34:22.547Z,36.35
2017-11-22T12:36:48.357Z,37.44
2017-11-22T12:39:14.120Z,36.62
2017-11-22T12:41:40.567Z,34.57
2017-11-22T12:44:10.380Z,33.93
2017-11-22T12:46:36.131Z,36.20
2017-11-22T12:49:01.884Z,36.26
2017-11-22T12:51:29.623Z,34.97
2017-11-22T12:53:55.405Z,35.07
2017-11-22T12:56:21.171Z,33.46
2017-11-22T12:58:46.981Z,35.74
2017-11-22T13:01:12.784Z,36.79
2017-11-22T13:03:41.581Z,35.23
2017-11-22T13:06:07.406Z,34.66
2017-11-22T13:08:35.954Z,33.98
2017-11-22T13:11:01.744Z,33.11
2017-11-22T13:15:58.328Z,35.80
2017-11-22T13:18:25.809Z,36.71
2017-11-22T13:20:51.581Z,37.50
2017-11-22T13:23:20.636Z,36.48
2017-11-22T13:25:46.457Z,36.09
2017-11-22T13:28:15.712Z,33.29
2017-11-22T13:30:41.500Z,34.28
2017-11-22T13:33:07.291Z,34.92
2017-11-22T13:35:33.056Z,32.64
2017-11-22T13:37:58.875Z,34.81
2017-11-22T13:40:26.561Z,35.28
2017-11-22T13:42:52.328Z,34.33
2017-11-22T13:45:21.871Z,33.89
2017-11-22T13:47:47.701Z,32.81
2017-11-22T13:50:16.784Z,32.36
2017-11-22T13:52:42.590Z,33.48
2017-11-22T13:55:12.092Z,34.11
2017-11-22T13:57:37.859Z,33.43
2017-11-22T14:00:07.267Z,31.77
2017-11-22T14:02:33.044Z,33.09
2017-11-22T14:05:02.020Z,32.76
2017-11-22T14:07:27.825Z,32.71
2017-11-22T14:09:53.594Z,34.02
2017-11-22T14:12:19.386Z,31.95
2017-11-22T14:14:45.139Z,33.16
2017-11-22T14:17:12.028Z,33.52
2017-11-22T14:19:37.813Z,33.10
2017-11-22T14:22:07.499Z,33.71
2017-11-22T14:24:33.280Z,33.88
2017-11-22T14:27:02.840Z,34.27
2017-11-22T14:29:28.632Z,33.87
2017-11-22T14:31:56.246Z,33.72
2017-11-22T14:34:22.004Z,33.88
2017-11-22T14:36:51.782Z,34.20
2017-11-22T14:39:17.607Z,34.70
2017-11-22T14:41:46.821Z,35.40
2017-11-22T14:44:12.581Z,35.88
2017-11-22T14:46:38.340Z,36.42
2017-11-22T14:49:04.147Z,36.96
2017-11-22T14:51:29.908Z,37.01
2017-11-22T14:53:57.636Z,36.84
2017-11-22T14:56:23.623Z,38.07
2017-11-22T14:58:52.804Z,38.81
2017-11-22T15:01:18.591Z,40.26
2017-11-22T15:03:48.245Z,41.44
2017-11-22T15:06:14.040Z,42.19
2017-11-22T15:08:41.865Z,43.22
2017-11-22T15:11:07.655Z,44.26
2017-11-22T15:13:36.576Z,45.21
2017-11-22T15:16:02.384Z,45.77
2017-11-22T15:18:31.514Z,44.65
2017-11-22T15:20:57.369Z,45.97
2017-11-22T15:23:23.143Z,46.50
2017-11-22T15:25:48.921Z,47.45
2017-11-22T15:28:14.689Z,48.63
2017-11-22T15:30:42.498Z,50.07
2017-11-22T15:33:08.271Z,51.08
2017-11-22T15:35:37.493Z,51.51
2017-11-22T15:38:03.262Z,51.43
2017-11-22T15:40:32.212Z,51.62
2017-11-22T15:42:57.988Z,52.21
2017-11-22T15:45:26.645Z,52.27
2017-11-22T15:47:52.456Z,52.16
2017-11-22T15:50:21.248Z,51.99
2017-11-22T15:52:47.116Z,51.90
2017-11-22T15:55:17.686Z,53.01
2017-11-22T16:00:24.344Z,54.47
2017-11-22T16:02:50.168Z,54.28
2017-11-22T16:05:16.015Z,55.37
2017-11-22T16:07:41.800Z,56.05
2017-11-22T16:10:07.560Z,56.33
2017-11-22T16:12:33.420Z,56.46
2017-11-22T16:14:59.193Z,58.19
2017-11-22T16:17:24.995Z,60.21
2017-11-22T16:37:03.511Z,60.25
2017-11-22T16:39:29.336Z,59.59
2017-11-22T16:42:18.715Z,58.02
2017-11-22T17:01:29.892Z,55.67
2017-11-22T17:21:07.870Z,58.31
2017-11-22T17:40:30.185Z,61.15
2017-11-22T17:43:28.222Z,62.34
2017-11-22T18:02:50.540Z,60.53
2017-11-22T18:08:37.323Z,58.79
2017-11-22T18:11:26.913Z,58.86
2017-11-22T18:14:23.820Z,58.01
2017-11-22T18:17:23.880Z,58.50
2017-11-22T18:30:11.055Z,59.40
2017-11-22T18:33:00.675Z,60.25
2017-11-22T18:35:58.523Z,60.83
2017-11-22T18:38:55.520Z,60.73
2017-11-22T18:51:42.604Z,60.92
2017-11-22T18:54:32.394Z,60.86
2017-11-22T18:57:29.187Z,60.65
2017-11-22T19:16:39.579Z,61.32
2017-11-22T19:35:49.972Z,63.04
2017-11-22T19:55:25.256Z,63.27
2017-11-22T19:57:51.016Z,62.88
2017-11-22T20:00:40.638Z,62.61
2017-11-22T20:19:52.605Z,62.80
2017-11-22T20:22:42.221Z,62.10
2017-11-22T20:41:54.296Z,60.89
2017-11-22T20:44:43.905Z,60.26
2017-11-22T20:47:41.640Z,60.18
2017-11-22T21:03:32.316Z,60.47
2017-11-22T21:06:25.060Z,60.23
2017-11-22T21:09:22.819Z,59.68
2017-11-22T21:12:20.411Z,59.54
2017-11-22T21:15:17.552Z,60.00
2017-11-22T21:25:07.404Z,60.35
2017-11-22T21:44:46.836Z,61.15
2017-11-22T22:04:00.479Z,60.18
2017-11-22T22:23:11.933Z,60.94
2017-11-22T22:26:09.692Z,61.23
2017-11-22T22:29:07.616Z,61.45
2017-11-22T22:31:46.760Z,60.15
2017-11-22T22:51:22.714Z,59.69
2017-11-22T23:10:36.323Z,60.10
2017-11-22T23:13:13.952Z,60.10
2017-11-22T23:32:50.449Z,58.37
2017-11-22T23:52:01.461Z,59.04
2017-11-22T23:54:59.384Z,59.04
2017-11-22T23:57:25.126Z,58.91
